sensor_id;sensor_type;location;lat;lon;timestamp;temperature;humidity
11055;DHT22;5580;50.106;8.702;2022-11-23T00:00:25;9.20;99.90
11055;DHT22;5580;50.106;8.702;2022-11-23T00:02:56;9.20;99.90
11055;DHT22;5580;50.106;8.702;2022-11-23T00:05:22;9.20;99.90
11055;DHT22;5580;50.106;8.702;2022-11-23T00:07:47;9.20;99.90
11055;DHT22;5580;50.106;8.702;2022-11-23T00:10:13;9.20;99.90
11055;DHT22;5580;50.106;8.702;2022-11-23T00:12:38;9.20;99.90
11055;DHT22;5580;50.106;8.702;2022-11-23T00:15:05;9.20;99.90
11055;DHT22;5580;50.106;8.702;2022-11-23T00:17:31;9.20;99.90
11055;DHT22;5580;50.106;8.702;2022-11-23T00:19:56;9.20;99.90
11055;DHT22;5580;50.106;8.702;2022-11-23T00:22:22;9.20;99.90
11055;DHT22;5580;50.106;8.702;2022-11-23T00:24:47;9.20;99.90
11055;DHT22;5580;50.106;8.702;2022-11-23T00:27:13;9.20;99.90
11055;DHT22;5580;50.106;8.702;2022-11-23T00:29:39;9.20;99.90
11055;DHT22;5580;50.106;8.702;2022-11-23T00:32:04;9.20;99.90
11055;DHT22;5580;50.106;8.702;2022-11-23T00:34:30;9.20;99.90
11055;DHT22;5580;50.106;8.702;2022-11-23T00:36:55;9.20;99.90
11055;DHT22;5580;50.106;8.702;2022-11-23T00:39:21;9.20;99.90
11055;DHT22;5580;50.106;8.702;2022-11-23T00:41:47;9.20;99.90
11055;DHT22;5580;50.106;8.702;2022-11-23T00:44:12;9.20;99.90
11055;DHT22;5580;50.106;8.702;2022-11-23T00:46:38;9.20;99.90
11055;DHT22;5580;50.106;8.702;2022-11-23T00:49:03;9.20;99.90
11055;DHT22;5580;50.106;8.702;2022-11-23T00:51:33;9.10;99.90
11055;DHT22;5580;50.106;8.702;2022-11-23T00:53:59;9.10;99.90
11055;DHT22;5580;50.106;8.702;2022-11-23T00:56:26;9.10;99.90
11055;DHT22;5580;50.106;8.702;2022-11-23T00:58:53;9.10;99.90
11055;DHT22;5580;50.106;8.702;2022-11-23T01:01:21;9.10;99.90
11055;DHT22;5580;50.106;8.702;2022-11-23T01:03:49;9.20;99.90
11055;DHT22;5580;50.106;8.702;2022-11-23T01:06:17;9.20;99.90
11055;DHT22;5580;50.106;8.702;2022-11-23T01:08:54;9.20;99.90
11055;DHT22;5580;50.106;8.702;2022-11-23T01:11:21;9.10;99.90
11055;DHT22;5580;50.106;8.702;2022-11-23T01:13:47;9.10;99.90
11055;DHT22;5580;50.106;8.702;2022-11-23T01:16:18;9.10;99.90
11055;DHT22;5580;50.106;8.702;2022-11-23T01:18:44;9.10;99.90
11055;DHT22;5580;50.106;8.702;2022-11-23T01:21:10;9.10;99.90
11055;DHT22;5580;50.106;8.702;2022-11-23T01:23:36;9.10;99.90
11055;DHT22;5580;50.106;8.702;2022-11-23T01:26:07;9.10;99.90
11055;DHT22;5580;50.106;8.702;2022-11-23T01:28:33;9.10;99.90
11055;DHT22;5580;50.106;8.702;2022-11-23T01:31:05;9.10;99.90
11055;DHT22;5580;50.106;8.702;2022-11-23T01:33:31;9.10;99.90
11055;DHT22;5580;50.106;8.702;2022-11-23T01:35:56;9.10;99.90
11055;DHT22;5580;50.106;8.702;2022-11-23T01:38:22;9.10;99.90
11055;DHT22;5580;50.106;8.702;2022-11-23T01:40:47;9.20;99.90
11055;DHT22;5580;50.106;8.702;2022-11-23T01:43:15;9.10;99.90
11055;DHT22;5580;50.106;8.702;2022-11-23T01:45:56;9.10;99.90
11055;DHT22;5580;50.106;8.702;2022-11-23T01:48:33;9.10;99.90
11055;DHT22;5580;50.106;8.702;2022-11-23T01:51:03;9.10;99.90
11055;DHT22;5580;50.106;8.702;2022-11-23T01:53:31;9.10;99.90
11055;DHT22;5580;50.106;8.702;2022-11-23T01:55:59;9.10;99.90
11055;DHT22;5580;50.106;8.702;2022-11-23T01:58:26;9.10;99.90
11055;DHT22;5580;50.106;8.702;2022-11-23T02:00:53;9.20;99.90
11055;DHT22;5580;50.106;8.702;2022-11-23T02:03:19;9.20;99.90
11055;DHT22;5580;50.106;8.702;2022-11-23T02:05:51;9.20;99.90
11055;DHT22;5580;50.106;8.702;2022-11-23T02:08:19;9.20;99.90
11055;DHT22;5580;50.106;8.702;2022-11-23T02:10:46;9.10;99.90
11055;DHT22;5580;50.106;8.702;2022-11-23T02:13:12;9.10;99.90
11055;DHT22;5580;50.106;8.702;2022-11-23T02:15:39;9.10;99.90
11055;DHT22;5580;50.106;8.702;2022-11-23T02:18:13;9.10;99.90
11055;DHT22;5580;50.106;8.702;2022-11-23T02:20:40;9.20;99.90
11055;DHT22;5580;50.106;8.702;2022-11-23T02:26:11;9.20;99.90
11055;DHT22;5580;50.106;8.702;2022-11-23T02:29:00;9.20;99.90
11055;DHT22;5580;50.106;8.702;2022-11-23T02:31:27;9.10;99.90
11055;DHT22;5580;50.106;8.702;2022-11-23T02:33:52;9.10;99.90
11055;DHT22;5580;50.106;8.702;2022-11-23T02:36:41;9.10;99.90
11055;DHT22;5580;50.106;8.702;2022-11-23T02:39:13;9.20;99.90
11055;DHT22;5580;50.106;8.702;2022-11-23T02:41:42;9.20;99.90
11055;DHT22;5580;50.106;8.702;2022-11-23T02:44:21;9.20;99.90
11055;DHT22;5580;50.106;8.702;2022-11-23T02:46:47;9.30;99.90
11055;DHT22;5580;50.106;8.702;2022-11-23T02:49:13;9.20;99.90
11055;DHT22;5580;50.106;8.702;2022-11-23T02:51:38;9.20;99.90
11055;DHT22;5580;50.106;8.702;2022-11-23T02:54:04;9.20;99.90
11055;DHT22;5580;50.106;8.702;2022-11-23T02:56:30;9.20;99.90
11055;DHT22;5580;50.106;8.702;2022-11-23T02:58:55;9.20;99.90
11055;DHT22;5580;50.106;8.702;2022-11-23T03:01:21;9.20;99.90
11055;DHT22;5580;50.106;8.702;2022-11-23T03:03:46;9.20;99.90
11055;DHT22;5580;50.106;8.702;2022-11-23T03:06:12;9.20;99.90
11055;DHT22;5580;50.106;8.702;2022-11-23T03:08:37;9.20;99.90
11055;DHT22;5580;50.106;8.702;2022-11-23T03:11:03;9.30;99.90
11055;DHT22;5580;50.106;8.702;2022-11-23T03:13:29;9.30;99.90
11055;DHT22;5580;50.106;8.702;2022-11-23T03:15:55;9.30;99.90
11055;DHT22;5580;50.106;8.702;2022-11-23T03:18:25;9.30;99.90
11055;DHT22;5580;50.106;8.702;2022-11-23T03:20:50;9.30;99.90
11055;DHT22;5580;50.106;8.702;2022-11-23T03:23:16;9.30;99.90
11055;DHT22;5580;50.106;8.702;2022-11-23T03:25:42;9.30;99.90
11055;DHT22;5580;50.106;8.702;2022-11-23T03:28:07;9.30;99.90
11055;DHT22;5580;50.106;8.702;2022-11-23T03:30:33;9.30;99.90
11055;DHT22;5580;50.106;8.702;2022-11-23T03:32:59;9.30;99.90
11055;DHT22;5580;50.106;8.702;2022-11-23T03:35:24;9.30;99.90
11055;DHT22;5580;50.106;8.702;2022-11-23T03:37:50;9.30;99.90
11055;DHT22;5580;50.106;8.702;2022-11-23T03:40:15;9.30;99.90
11055;DHT22;5580;50.106;8.702;2022-11-23T03:42:41;9.30;99.90
11055;DHT22;5580;50.106;8.702;2022-11-23T03:45:07;9.30;99.90
11055;DHT22;5580;50.106;8.702;2022-11-23T03:47:33;9.30;99.90
11055;DHT22;5580;50.106;8.702;2022-11-23T03:49:59;9.20;99.90
11055;DHT22;5580;50.106;8.702;2022-11-23T03:52:25;9.20;99.90
11055;DHT22;5580;50.106;8.702;2022-11-23T03:54:50;9.20;99.90
11055;DHT22;5580;50.106;8.702;2022-11-23T03:57:18;9.20;99.90
11055;DHT22;5580;50.106;8.702;2022-11-23T03:59:44;9.20;99.90
11055;DHT22;5580;50.106;8.702;2022-11-23T04:02:09;9.20;99.90
11055;DHT22;5580;50.106;8.702;2022-11-23T04:04:35;9.20;99.90
11055;DHT22;5580;50.106;8.702;2022-11-23T04:07:01;9.30;99.90
11055;DHT22;5580;50.106;8.702;2022-11-23T04:09:26;9.20;99.90
11055;DHT22;5580;50.106;8.702;2022-11-23T04:11:52;9.30;99.90
11055;DHT22;5580;50.106;8.702;2022-11-23T04:14:18;9.20;99.90
11055;DHT22;5580;50.106;8.702;2022-11-23T04:16:43;9.20;99.90
11055;DHT22;5580;50.106;8.702;2022-11-23T04:19:09;9.20;99.90
11055;DHT22;5580;50.106;8.702;2022-11-23T04:21:35;9.20;99.90
11055;DHT22;5580;50.106;8.702;2022-11-23T04:24:00;9.30;99.90
11055;DHT22;5580;50.106;8.702;2022-11-23T04:26:26;9.20;99.90
11055;DHT22;5580;50.106;8.702;2022-11-23T04:28:51;9.30;99.90
11055;DHT22;5580;50.106;8.702;2022-11-23T04:31:17;9.20;99.90
11055;DHT22;5580;50.106;8.702;2022-11-23T04:33:43;9.20;99.90
11055;DHT22;5580;50.106;8.702;2022-11-23T04:36:08;9.20;99.90
11055;DHT22;5580;50.106;8.702;2022-11-23T04:38:34;9.20;99.90
11055;DHT22;5580;50.106;8.702;2022-11-23T04:40:59;9.20;99.90
11055;DHT22;5580;50.106;8.702;2022-11-23T04:43:25;9.20;99.90
11055;DHT22;5580;50.106;8.702;2022-11-23T04:45:51;9.20;99.90
11055;DHT22;5580;50.106;8.702;2022-11-23T04:48:16;9.20;99.90
11055;DHT22;5580;50.106;8.702;2022-11-23T04:50:42;9.20;99.90
11055;DHT22;5580;50.106;8.702;2022-11-23T04:53:07;9.30;99.90
11055;DHT22;5580;50.106;8.702;2022-11-23T04:55:33;9.20;99.90
11055;DHT22;5580;50.106;8.702;2022-11-23T04:57:59;9.20;99.90
11055;DHT22;5580;50.106;8.702;2022-11-23T05:00:25;9.20;99.90
11055;DHT22;5580;50.106;8.702;2022-11-23T05:02:51;9.30;99.90
11055;DHT22;5580;50.106;8.702;2022-11-23T05:05:17;9.20;99.90
11055;DHT22;5580;50.106;8.702;2022-11-23T05:07:42;9.20;99.90
11055;DHT22;5580;50.106;8.702;2022-11-23T05:10:08;9.20;99.90
11055;DHT22;5580;50.106;8.702;2022-11-23T05:12:34;9.20;99.90
11055;DHT22;5580;50.106;8.702;2022-11-23T05:15:01;9.20;99.90
11055;DHT22;5580;50.106;8.702;2022-11-23T05:17:26;9.30;99.90
11055;DHT22;5580;50.106;8.702;2022-11-23T05:19:52;9.30;99.90
11055;DHT22;5580;50.106;8.702;2022-11-23T05:22:18;9.20;99.90
11055;DHT22;5580;50.106;8.702;2022-11-23T05:24:43;9.20;99.90
11055;DHT22;5580;50.106;8.702;2022-11-23T05:27:09;9.30;99.90
11055;DHT22;5580;50.106;8.702;2022-11-23T05:29:35;9.20;99.90
11055;DHT22;5580;50.106;8.702;2022-11-23T05:32:01;9.20;99.90
11055;DHT22;5580;50.106;8.702;2022-11-23T05:34:26;9.20;99.90
11055;DHT22;5580;50.106;8.702;2022-11-23T05:36:52;9.20;99.90
11055;DHT22;5580;50.106;8.702;2022-11-23T05:39:18;9.30;99.90
11055;DHT22;5580;50.106;8.702;2022-11-23T05:41:43;9.30;99.90
11055;DHT22;5580;50.106;8.702;2022-11-23T05:44:09;9.30;99.90
11055;DHT22;5580;50.106;8.702;2022-11-23T05:46:34;9.30;99.90
11055;DHT22;5580;50.106;8.702;2022-11-23T05:49:00;9.30;99.90
11055;DHT22;5580;50.106;8.702;2022-11-23T05:51:25;9.30;99.90
11055;DHT22;5580;50.106;8.702;2022-11-23T05:53:51;9.30;99.90
11055;DHT22;5580;50.106;8.702;2022-11-23T05:56:17;9.20;99.90
11055;DHT22;5580;50.106;8.702;2022-11-23T05:58:42;9.20;99.90
11055;DHT22;5580;50.106;8.702;2022-11-23T06:01:08;9.20;99.90
11055;DHT22;5580;50.106;8.702;2022-11-23T06:03:33;9.30;99.90
11055;DHT22;5580;50.106;8.702;2022-11-23T06:05:59;9.30;99.90
11055;DHT22;5580;50.106;8.702;2022-11-23T06:08:24;9.30;99.90
11055;DHT22;5580;50.106;8.702;2022-11-23T06:10:50;9.30;99.90
11055;DHT22;5580;50.106;8.702;2022-11-23T06:13:16;9.30;99.90
11055;DHT22;5580;50.106;8.702;2022-11-23T06:15:41;9.30;99.90
11055;DHT22;5580;50.106;8.702;2022-11-23T06:18:08;9.30;99.90
11055;DHT22;5580;50.106;8.702;2022-11-23T06:20:33;9.30;99.90
11055;DHT22;5580;50.106;8.702;2022-11-23T06:22:59;9.30;99.90
11055;DHT22;5580;50.106;8.702;2022-11-23T06:25:25;9.30;99.90
11055;DHT22;5580;50.106;8.702;2022-11-23T06:27:59;9.30;99.90
11055;DHT22;5580;50.106;8.702;2022-11-23T06:30:26;9.30;99.90
11055;DHT22;5580;50.106;8.702;2022-11-23T06:32:52;9.30;99.90
11055;DHT22;5580;50.106;8.702;2022-11-23T06:35:18;9.30;99.90
11055;DHT22;5580;50.106;8.702;2022-11-23T06:37:44;9.30;99.90
11055;DHT22;5580;50.106;8.702;2022-11-23T06:40:11;9.20;99.90
11055;DHT22;5580;50.106;8.702;2022-11-23T06:42:37;9.20;99.90
11055;DHT22;5580;50.106;8.702;2022-11-23T06:45:03;9.20;99.90
11055;DHT22;5580;50.106;8.702;2022-11-23T06:47:29;9.20;99.90
11055;DHT22;5580;50.106;8.702;2022-11-23T06:49:54;9.20;99.90
11055;DHT22;5580;50.106;8.702;2022-11-23T06:52:20;9.20;99.90
11055;DHT22;5580;50.106;8.702;2022-11-23T06:54:45;9.20;99.90
11055;DHT22;5580;50.106;8.702;2022-11-23T06:57:11;9.20;99.90
11055;DHT22;5580;50.106;8.702;2022-11-23T06:59:37;9.20;99.90
11055;DHT22;5580;50.106;8.702;2022-11-23T07:02:02;9.20;99.90
11055;DHT22;5580;50.106;8.702;2022-11-23T07:04:28;9.20;99.90
11055;DHT22;5580;50.106;8.702;2022-11-23T07:06:53;9.20;99.90
11055;DHT22;5580;50.106;8.702;2022-11-23T07:09:19;9.20;99.90
11055;DHT22;5580;50.106;8.702;2022-11-23T07:11:45;9.20;99.90
11055;DHT22;5580;50.106;8.702;2022-11-23T07:14:10;9.20;99.90
11055;DHT22;5580;50.106;8.702;2022-11-23T07:16:36;9.20;99.90
11055;DHT22;5580;50.106;8.702;2022-11-23T07:19:02;9.20;99.90
11055;DHT22;5580;50.106;8.702;2022-11-23T07:21:27;9.20;99.90
11055;DHT22;5580;50.106;8.702;2022-11-23T07:23:53;9.20;99.90
11055;DHT22;5580;50.106;8.702;2022-11-23T07:26:19;9.20;99.90
11055;DHT22;5580;50.106;8.702;2022-11-23T07:28:44;9.20;99.90
11055;DHT22;5580;50.106;8.702;2022-11-23T07:31:10;9.20;99.90
11055;DHT22;5580;50.106;8.702;2022-11-23T07:33:36;9.20;99.90
11055;DHT22;5580;50.106;8.702;2022-11-23T07:36:02;9.30;99.90
11055;DHT22;5580;50.106;8.702;2022-11-23T07:38:28;9.30;99.90
11055;DHT22;5580;50.106;8.702;2022-11-23T07:40:54;9.20;99.90
11055;DHT22;5580;50.106;8.702;2022-11-23T07:43:20;9.20;99.90
11055;DHT22;5580;50.106;8.702;2022-11-23T07:45:46;9.20;99.90
11055;DHT22;5580;50.106;8.702;2022-11-23T07:48:11;9.30;99.90
11055;DHT22;5580;50.106;8.702;2022-11-23T07:50:38;9.30;99.90
11055;DHT22;5580;50.106;8.702;2022-11-23T07:53:05;9.30;99.90
11055;DHT22;5580;50.106;8.702;2022-11-23T07:55:33;9.20;99.90
11055;DHT22;5580;50.106;8.702;2022-11-23T07:57:58;9.20;99.90
11055;DHT22;5580;50.106;8.702;2022-11-23T08:00:26;9.20;99.90
11055;DHT22;5580;50.106;8.702;2022-11-23T08:02:52;9.20;99.90
11055;DHT22;5580;50.106;8.702;2022-11-23T08:05:17;9.20;99.90
11055;DHT22;5580;50.106;8.702;2022-11-23T08:07:44;9.20;99.90
11055;DHT22;5580;50.106;8.702;2022-11-23T08:10:12;9.30;99.90
11055;DHT22;5580;50.106;8.702;2022-11-23T08:12:38;9.30;99.90
11055;DHT22;5580;50.106;8.702;2022-11-23T08:15:05;9.30;99.90
11055;DHT22;5580;50.106;8.702;2022-11-23T08:17:31;9.30;99.90
11055;DHT22;5580;50.106;8.702;2022-11-23T08:19:56;9.30;99.90
11055;DHT22;5580;50.106;8.702;2022-11-23T08:22:22;9.30;99.90
11055;DHT22;5580;50.106;8.702;2022-11-23T08:24:47;9.30;99.90
11055;DHT22;5580;50.106;8.702;2022-11-23T08:27:13;9.30;99.90
11055;DHT22;5580;50.106;8.702;2022-11-23T08:29:39;9.30;99.90
11055;DHT22;5580;50.106;8.702;2022-11-23T08:32:04;9.30;99.90
11055;DHT22;5580;50.106;8.702;2022-11-23T08:34:30;9.30;99.90
11055;DHT22;5580;50.106;8.702;2022-11-23T08:36:56;9.30;99.90
11055;DHT22;5580;50.106;8.702;2022-11-23T08:39:21;9.40;99.90
11055;DHT22;5580;50.106;8.702;2022-11-23T08:41:47;9.30;99.90
11055;DHT22;5580;50.106;8.702;2022-11-23T08:44:13;9.30;99.90
11055;DHT22;5580;50.106;8.702;2022-11-23T08:46:38;9.30;99.90
11055;DHT22;5580;50.106;8.702;2022-11-23T08:49:05;9.30;99.90
11055;DHT22;5580;50.106;8.702;2022-11-23T08:51:31;9.30;99.90
11055;DHT22;5580;50.106;8.702;2022-11-23T08:53:57;9.40;99.90
11055;DHT22;5580;50.106;8.702;2022-11-23T08:56:23;9.40;99.90
11055;DHT22;5580;50.106;8.702;2022-11-23T08:58:48;9.40;99.90
11055;DHT22;5580;50.106;8.702;2022-11-23T09:01:15;9.50;99.90
11055;DHT22;5580;50.106;8.702;2022-11-23T09:03:42;9.50;99.90
11055;DHT22;5580;50.106;8.702;2022-11-23T09:06:07;9.60;99.90
11055;DHT22;5580;50.106;8.702;2022-11-23T09:08:34;9.60;99.90
11055;DHT22;5580;50.106;8.702;2022-11-23T09:11:01;9.60;99.90
11055;DHT22;5580;50.106;8.702;2022-11-23T09:13:27;9.60;99.90
11055;DHT22;5580;50.106;8.702;2022-11-23T09:15:57;9.60;99.90
11055;DHT22;5580;50.106;8.702;2022-11-23T09:18:24;9.70;99.90
11055;DHT22;5580;50.106;8.702;2022-11-23T09:20:49;9.80;99.90
11055;DHT22;5580;50.106;8.702;2022-11-23T09:23:15;9.80;99.90
11055;DHT22;5580;50.106;8.702;2022-11-23T09:25:40;9.90;99.90
11055;DHT22;5580;50.106;8.702;2022-11-23T09:28:07;9.90;99.90
11055;DHT22;5580;50.106;8.702;2022-11-23T09:30:33;10.00;99.90
11055;DHT22;5580;50.106;8.702;2022-11-23T09:32:59;10.00;99.90
11055;DHT22;5580;50.106;8.702;2022-11-23T09:35:25;10.10;99.90
11055;DHT22;5580;50.106;8.702;2022-11-23T09:37:57;10.10;99.90
11055;DHT22;5580;50.106;8.702;2022-11-23T09:40:29;10.20;99.90
11055;DHT22;5580;50.106;8.702;2022-11-23T09:43:45;10.20;99.90
11055;DHT22;5580;50.106;8.702;2022-11-23T09:45:53;10.20;99.90
11055;DHT22;5580;50.106;8.702;2022-11-23T09:51:20;10.30;99.90
11055;DHT22;5580;50.106;8.702;2022-11-23T09:54:01;10.30;99.90
11055;DHT22;5580;50.106;8.702;2022-11-23T09:56:32;10.30;99.90
11055;DHT22;5580;50.106;8.702;2022-11-23T09:59:04;10.40;99.90
11055;DHT22;5580;50.106;8.702;2022-11-23T10:01:35;10.40;99.90
11055;DHT22;5580;50.106;8.702;2022-11-23T10:04:03;10.50;99.90
11055;DHT22;5580;50.106;8.702;2022-11-23T10:06:32;10.40;99.90
11055;DHT22;5580;50.106;8.702;2022-11-23T10:17:08;10.50;99.90
11055;DHT22;5580;50.106;8.702;2022-11-23T10:22:13;10.60;99.90
11055;DHT22;5580;50.106;8.702;2022-11-23T10:24:45;10.60;99.90
11055;DHT22;5580;50.106;8.702;2022-11-23T10:27:19;10.60;99.90
11055;DHT22;5580;50.106;8.702;2022-11-23T10:29:46;10.70;99.90
11055;DHT22;5580;50.106;8.702;2022-11-23T10:35:11;10.80;99.90
11055;DHT22;5580;50.106;8.702;2022-11-23T10:37:38;10.80;99.90
11055;DHT22;5580;50.106;8.702;2022-11-23T10:40:16;10.70;99.90
11055;DHT22;5580;50.106;8.702;2022-11-23T10:42:47;10.70;99.90
11055;DHT22;5580;50.106;8.702;2022-11-23T10:45:29;10.70;99.90
11055;DHT22;5580;50.106;8.702;2022-11-23T10:47:57;10.80;99.90
11055;DHT22;5580;50.106;8.702;2022-11-23T10:50:34;10.80;99.90
11055;DHT22;5580;50.106;8.702;2022-11-23T10:55:47;10.80;99.90
11055;DHT22;5580;50.106;8.702;2022-11-23T10:58:30;10.90;99.90
11055;DHT22;5580;50.106;8.702;2022-11-23T11:01:10;10.90;99.90
11055;DHT22;5580;50.106;8.702;2022-11-23T11:03:36;10.90;99.90
11055;DHT22;5580;50.106;8.702;2022-11-23T11:06:03;10.90;99.90
11055;DHT22;5580;50.106;8.702;2022-11-23T11:08:47;10.90;99.90
11055;DHT22;5580;50.106;8.702;2022-11-23T11:11:33;11.00;99.90
11055;DHT22;5580;50.106;8.702;2022-11-23T11:16:36;10.90;99.90
11055;DHT22;5580;50.106;8.702;2022-11-23T11:19:30;10.90;99.90
11055;DHT22;5580;50.106;8.702;2022-11-23T11:21:58;10.90;99.90
11055;DHT22;5580;50.106;8.702;2022-11-23T11:24:37;10.90;99.90
11055;DHT22;5580;50.106;8.702;2022-11-23T11:27:13;10.90;99.90
11055;DHT22;5580;50.106;8.702;2022-11-23T11:35:33;10.90;99.90
11055;DHT22;5580;50.106;8.702;2022-11-23T11:38:03;11.00;99.90
11055;DHT22;5580;50.106;8.702;2022-11-23T11:40:36;11.00;99.90
11055;DHT22;5580;50.106;8.702;2022-11-23T11:43:10;11.00;99.90
11055;DHT22;5580;50.106;8.702;2022-11-23T11:45:43;11.00;99.90
11055;DHT22;5580;50.106;8.702;2022-11-23T11:48:13;11.00;99.90
11055;DHT22;5580;50.106;8.702;2022-11-23T11:51:04;11.00;99.90
11055;DHT22;5580;50.106;8.702;2022-11-23T11:53:37;11.10;99.90
11055;DHT22;5580;50.106;8.702;2022-11-23T11:56:28;11.10;99.90
11055;DHT22;5580;50.106;8.702;2022-11-23T11:59:13;11.10;99.90
11055;DHT22;5580;50.106;8.702;2022-11-23T12:02:17;11.10;99.90
11055;DHT22;5580;50.106;8.702;2022-11-23T12:05:13;11.20;99.90
11055;DHT22;5580;50.106;8.702;2022-11-23T12:10:54;11.20;99.90
11055;DHT22;5580;50.106;8.702;2022-11-23T12:13:37;11.20;99.90
11055;DHT22;5580;50.106;8.702;2022-11-23T12:22:07;11.30;99.90
11055;DHT22;5580;50.106;8.702;2022-11-23T12:24:55;11.30;99.90
11055;DHT22;5580;50.106;8.702;2022-11-23T12:41:56;11.30;99.90
11055;DHT22;5580;50.106;8.702;2022-11-23T12:49:37;11.40;99.90
11055;DHT22;5580;50.106;8.702;2022-11-23T12:52:34;11.40;99.90
11055;DHT22;5580;50.106;8.702;2022-11-23T12:58:32;11.40;99.90
11055;DHT22;5580;50.106;8.702;2022-11-23T13:00:43;11.40;99.90
11055;DHT22;5580;50.106;8.702;2022-11-23T13:05:59;11.40;99.90
11055;DHT22;5580;50.106;8.702;2022-11-23T13:14:15;11.50;99.90
11055;DHT22;5580;50.106;8.702;2022-11-23T13:22:20;11.50;99.90
11055;DHT22;5580;50.106;8.702;2022-11-23T13:25:35;11.50;99.90
11055;DHT22;5580;50.106;8.702;2022-11-23T13:28:28;11.60;99.90
11055;DHT22;5580;50.106;8.702;2022-11-23T13:33:39;11.50;99.90
11055;DHT22;5580;50.106;8.702;2022-11-23T13:36:48;11.50;99.90
11055;DHT22;5580;50.106;8.702;2022-11-23T13:38:57;11.50;99.90
11055;DHT22;5580;50.106;8.702;2022-11-23T13:44:20;11.60;99.90
11055;DHT22;5580;50.106;8.702;2022-11-23T13:47:05;11.60;99.90
11055;DHT22;5580;50.106;8.702;2022-11-23T13:49:42;11.60;99.90
11055;DHT22;5580;50.106;8.702;2022-11-23T13:57:38;11.60;99.90
11055;DHT22;5580;50.106;8.702;2022-11-23T14:06:44;11.60;99.90
11055;DHT22;5580;50.106;8.702;2022-11-23T14:17:37;11.60;99.90
11055;DHT22;5580;50.106;8.702;2022-11-23T14:33:53;11.70;99.90
11055;DHT22;5580;50.106;8.702;2022-11-23T14:36:36;11.70;99.90
11055;DHT22;5580;50.106;8.702;2022-11-23T14:42:09;11.60;99.90
11055;DHT22;5580;50.106;8.702;2022-11-23T14:44:36;11.50;99.90
11055;DHT22;5580;50.106;8.702;2022-11-23T14:47:08;11.50;99.90
11055;DHT22;5580;50.106;8.702;2022-11-23T14:49:35;11.40;99.90
11055;DHT22;5580;50.106;8.702;2022-11-23T14:52:03;11.40;99.90
11055;DHT22;5580;50.106;8.702;2022-11-23T14:54:29;11.40;99.90
11055;DHT22;5580;50.106;8.702;2022-11-23T14:56:59;11.30;99.90
11055;DHT22;5580;50.106;8.702;2022-11-23T14:59:29;11.30;99.90
11055;DHT22;5580;50.106;8.702;2022-11-23T15:02:17;11.20;99.90
11055;DHT22;5580;50.106;8.702;2022-11-23T15:05:02;11.20;99.90
11055;DHT22;5580;50.106;8.702;2022-11-23T15:12:51;10.90;99.90
11055;DHT22;5580;50.106;8.702;2022-11-23T15:15:27;10.90;99.90
11055;DHT22;5580;50.106;8.702;2022-11-23T15:17:56;10.80;99.90
11055;DHT22;5580;50.106;8.702;2022-11-23T15:20:25;10.70;99.90
11055;DHT22;5580;50.106;8.702;2022-11-23T15:22:52;10.70;99.90
11055;DHT22;5580;50.106;8.702;2022-11-23T15:25:17;10.70;99.90
11055;DHT22;5580;50.106;8.702;2022-11-23T15:27:45;10.70;99.90
11055;DHT22;5580;50.106;8.702;2022-11-23T15:30:20;10.70;99.90
11055;DHT22;5580;50.106;8.702;2022-11-23T15:33:04;10.60;99.90
11055;DHT22;5580;50.106;8.702;2022-11-23T15:35:35;10.60;99.90
11055;DHT22;5580;50.106;8.702;2022-11-23T15:38:05;10.50;99.90
11055;DHT22;5580;50.106;8.702;2022-11-23T15:40:35;10.60;99.90
11055;DHT22;5580;50.106;8.702;2022-11-23T15:43:01;10.60;99.90
11055;DHT22;5580;50.106;8.702;2022-11-23T15:51:04;10.60;99.90
11055;DHT22;5580;50.106;8.702;2022-11-23T15:53:36;10.50;99.90
11055;DHT22;5580;50.106;8.702;2022-11-23T15:56:48;10.40;99.90
11055;DHT22;5580;50.106;8.702;2022-11-23T16:02:05;10.30;99.90
11055;DHT22;5580;50.106;8.702;2022-11-23T16:04:35;10.20;99.90
11055;DHT22;5580;50.106;8.702;2022-11-23T16:09:43;10.20;99.90
11055;DHT22;5580;50.106;8.702;2022-11-23T16:14:46;10.10;99.90
11055;DHT22;5580;50.106;8.702;2022-11-23T16:19:49;10.10;99.90
11055;DHT22;5580;50.106;8.702;2022-11-23T16:24:57;10.00;99.90
11055;DHT22;5580;50.106;8.702;2022-11-23T16:27:24;10.00;99.90
11055;DHT22;5580;50.106;8.702;2022-11-23T16:29:53;9.90;99.90
11055;DHT22;5580;50.106;8.702;2022-11-23T16:32:27;9.90;99.90
11055;DHT22;5580;50.106;8.702;2022-11-23T16:34:54;9.90;99.90
11055;DHT22;5580;50.106;8.702;2022-11-23T16:37:21;9.90;99.90
11055;DHT22;5580;50.106;8.702;2022-11-23T16:39:47;9.90;99.90
11055;DHT22;5580;50.106;8.702;2022-11-23T16:42:14;9.90;99.90
11055;DHT22;5580;50.106;8.702;2022-11-23T16:44:40;9.90;99.90
11055;DHT22;5580;50.106;8.702;2022-11-23T16:47:17;10.00;99.90
11055;DHT22;5580;50.106;8.702;2022-11-23T16:49:43;10.00;99.90
11055;DHT22;5580;50.106;8.702;2022-11-23T16:52:09;10.00;99.90
11055;DHT22;5580;50.106;8.702;2022-11-23T16:54:36;10.00;99.90
11055;DHT22;5580;50.106;8.702;2022-11-23T16:57:01;10.00;99.90
11055;DHT22;5580;50.106;8.702;2022-11-23T16:59:29;10.10;99.90
11055;DHT22;5580;50.106;8.702;2022-11-23T17:01:55;10.10;99.90
11055;DHT22;5580;50.106;8.702;2022-11-23T17:04:22;10.10;99.90
11055;DHT22;5580;50.106;8.702;2022-11-23T17:06:48;10.10;99.90
11055;DHT22;5580;50.106;8.702;2022-11-23T17:09:13;10.10;99.90
11055;DHT22;5580;50.106;8.702;2022-11-23T17:11:44;10.10;99.90
11055;DHT22;5580;50.106;8.702;2022-11-23T17:14:14;10.10;99.90
11055;DHT22;5580;50.106;8.702;2022-11-23T17:16:41;10.10;99.90
11055;DHT22;5580;50.106;8.702;2022-11-23T17:19:18;10.10;99.90
11055;DHT22;5580;50.106;8.702;2022-11-23T17:21:45;10.10;99.90
11055;DHT22;5580;50.106;8.702;2022-11-23T17:24:11;10.10;99.90
11055;DHT22;5580;50.106;8.702;2022-11-23T17:26:39;10.20;99.90
11055;DHT22;5580;50.106;8.702;2022-11-23T17:29:13;10.20;99.90
11055;DHT22;5580;50.106;8.702;2022-11-23T17:31:40;10.20;99.90
11055;DHT22;5580;50.106;8.702;2022-11-23T17:34:08;10.20;99.90
11055;DHT22;5580;50.106;8.702;2022-11-23T17:36:34;10.20;99.90
11055;DHT22;5580;50.106;8.702;2022-11-23T17:39:00;10.30;99.90
11055;DHT22;5580;50.106;8.702;2022-11-23T17:41:25;10.30;99.90
11055;DHT22;5580;50.106;8.702;2022-11-23T17:43:51;10.30;99.90
11055;DHT22;5580;50.106;8.702;2022-11-23T17:46:19;10.30;99.90
11055;DHT22;5580;50.106;8.702;2022-11-23T17:48:45;10.30;99.90
11055;DHT22;5580;50.106;8.702;2022-11-23T17:51:13;10.40;99.90
11055;DHT22;5580;50.106;8.702;2022-11-23T17:53:39;10.40;99.90
11055;DHT22;5580;50.106;8.702;2022-11-23T17:56:05;10.40;99.90
11055;DHT22;5580;50.106;8.702;2022-11-23T17:58:31;10.30;99.90
11055;DHT22;5580;50.106;8.702;2022-11-23T18:00:57;10.30;99.90
11055;DHT22;5580;50.106;8.702;2022-11-23T18:03:22;10.30;99.90
11055;DHT22;5580;50.106;8.702;2022-11-23T18:05:48;10.20;99.90
11055;DHT22;5580;50.106;8.702;2022-11-23T18:08:13;10.30;99.90
11055;DHT22;5580;50.106;8.702;2022-11-23T18:10:39;10.30;99.90
11055;DHT22;5580;50.106;8.702;2022-11-23T18:13:04;10.20;99.90
11055;DHT22;5580;50.106;8.702;2022-11-23T18:15:30;10.20;99.90
11055;DHT22;5580;50.106;8.702;2022-11-23T18:17:56;10.20;99.90
11055;DHT22;5580;50.106;8.702;2022-11-23T18:20:21;10.10;99.90
11055;DHT22;5580;50.106;8.702;2022-11-23T18:22:47;10.10;99.90
11055;DHT22;5580;50.106;8.702;2022-11-23T18:25:12;10.00;99.90
11055;DHT22;5580;50.106;8.702;2022-11-23T18:27:38;9.90;99.90